Time;durP1;ratioP1;P1;durP2;ratioP2;P2;SDS_P1;SDS_P2;PMS_P1;PMS_P2;Temp;Humidity;BMP_temperature;BMP_pressure;BME280_temperature;BME280_humidity;BME280_pressure;Samples;Min_cycle;Max_cycle;Signal;HPM_P1;HPM_P2
2021/12/17 00:00:17;;;;;;;14.85;10.93;;;9.30;99.90;;;;;;5130953;27;20485;-64
2021/12/17 00:03:10;;;;;;;18.90;11.98;;;9.30;99.90;;;;;;5137287;27;20081;-64
2021/12/17 00:08:12;;;;;;;16.95;11.50;;;9.30;99.90;;;;;;5102279;27;20142;-64
2021/12/17 00:10:37;;;;;;;20.52;11.70;;;9.30;99.90;;;;;;5129691;27;20123;-64
2021/12/17 00:13:03;;;;;;;15.75;10.93;;;9.30;99.90;;;;;;5133749;27;20560;-64
2021/12/17 00:15:29;;;;;;;14.52;11.07;;;9.30;99.90;;;;;;5129997;27;20490;-64
2021/12/17 00:18:01;;;;;;;21.25;11.45;;;9.30;99.90;;;;;;5136025;27;20146;-64
2021/12/17 00:50:55;;;;;;;11.27;9.15;;;9.40;99.90;;;;;;5132676;27;20150;-64
2021/12/17 00:53:20;;;;;;;13.70;9.40;;;9.40;99.90;;;;;;5120291;28;20051;-64
2021/12/17 00:55:46;;;;;;;14.43;9.13;;;9.30;99.90;;;;;;5128988;28;20043;-65
2021/12/17 00:58:12;;;;;;;12.98;9.55;;;9.30;99.90;;;;;;5120780;27;20050;-64
2021/12/17 01:00:38;;;;;;;11.73;8.98;;;9.30;99.90;;;;;;5137065;27;20138;-64
2021/12/17 01:03:04;;;;;;;14.88;9.82;;;9.30;99.90;;;;;;5128902;28;20050;-64
2021/12/17 01:05:30;;;;;;;14.35;9.68;;;9.30;99.90;;;;;;5123994;27;20046;-64
2021/12/17 01:07:59;;;;;;;14.95;9.32;;;9.30;99.90;;;;;;5146659;27;20047;-64
2021/12/17 01:10:28;;;;;;;13.55;9.13;;;9.30;99.90;;;;;;5126198;27;20047;-65
2021/12/17 01:12:54;;;;;;;11.85;8.77;;;9.30;99.90;;;;;;5121876;28;20151;-64
2021/12/17 01:15:20;;;;;;;12.02;8.73;;;9.20;99.90;;;;;;5108523;28;20065;-64
2021/12/17 01:17:53;;;;;;;13.57;9.38;;;9.20;99.90;;;;;;5130112;27;20039;-64
2021/12/17 01:20:34;;;;;;;12.23;8.88;;;9.30;99.90;;;;;;5116893;28;20107;-64
2021/12/17 01:23:14;;;;;;;12.43;8.70;;;9.20;99.90;;;;;;5128815;28;20077;-64
2021/12/17 01:35:18;;;;;;;13.25;8.73;;;9.20;99.90;;;;;;5122413;28;20047;-64
2021/12/17 01:36:40;;;;;;;15.57;9.93;;;9.20;99.90;;;;;;5132339;27;20046;-64
2021/12/17 01:40:24;;;;;;;15.02;10.63;;;9.20;99.90;;;;;;5121046;27;20086;-64
2021/12/17 01:42:06;;;;;;;15.25;11.10;;;9.20;99.90;;;;;;5113528;27;20426;-65
2021/12/17 01:44:39;;;;;;;16.25;10.48;;;9.20;99.90;;;;;;5132928;27;20516;-64
2021/12/17 01:47:10;;;;;;;19.77;12.63;;;9.20;99.90;;;;;;5116675;27;20054;-64
2021/12/17 02:00:18;;;;;;;20.55;13.18;;;9.20;99.90;;;;;;5138210;27;20051;-65
2021/12/17 02:02:47;;;;;;;19.85;12.55;;;9.20;99.90;;;;;;5132648;27;20047;-64
2021/12/17 02:05:13;;;;;;;21.02;13.10;;;9.20;99.90;;;;;;5140737;27;20046;-64
2021/12/17 02:07:40;;;;;;;21.00;12.02;;;9.20;99.90;;;;;;5118653;27;20047;-64
2021/12/17 02:31:57;;;;;;;23.15;12.80;;;9.20;99.90;;;;;;5121209;27;20051;-64
2021/12/17 02:34:44;;;;;;;23.55;13.38;;;9.10;99.90;;;;;;5131847;27;20054;-64
2021/12/17 02:37:13;;;;;;;25.25;13.85;;;9.10;99.90;;;;;;5123296;27;20055;-64
2021/12/17 02:45:31;;;;;;;22.55;12.52;;;9.10;99.90;;;;;;5139410;27;20130;-64
2021/12/17 02:45:34;;;;;;;;;;;9.10;99.90;;;;;;5129610;27;20133;-64
2021/12/17 02:48:10;;;;;;;22.90;12.90;;;9.10;99.90;;;;;;5144963;27;19971;-64
2021/12/17 02:50:38;;;;;;;21.60;12.90;;;9.10;99.90;;;;;;5132539;27;20050;-64
2021/12/17 02:53:07;;;;;;;24.63;13.82;;;9.10;99.90;;;;;;5131316;27;20042;-64
2021/12/17 02:55:36;;;;;;;27.75;13.85;;;9.10;99.90;;;;;;5142739;27;20401;-64
2021/12/17 02:58:03;;;;;;;20.35;12.05;;;9.10;99.90;;;;;;5123571;27;20122;-64
2021/12/17 03:00:29;;;;;;;23.65;13.00;;;9.00;99.90;;;;;;5118968;27;20051;-64
2021/12/17 03:02:56;;;;;;;23.13;13.68;;;9.10;99.90;;;;;;5111638;27;20036;-65
2021/12/17 03:05:24;;;;;;;25.70;13.52;;;9.10;99.90;;;;;;5135326;27;20432;-64
2021/12/17 03:07:50;;;;;;;23.58;12.95;;;9.10;99.90;;;;;;5106496;27;20040;-64
2021/12/17 03:10:16;;;;;;;23.70;13.30;;;9.10;99.90;;;;;;5136173;27;20115;-64
2021/12/17 03:15:22;;;;;;;21.58;12.98;;;9.10;99.90;;;;;;5107391;27;20550;-64
2021/12/17 03:23:33;;;;;;;22.02;13.55;;;9.10;99.90;;;;;;5109858;27;20054;-65
2021/12/17 03:26:01;;;;;;;23.15;12.68;;;9.00;99.90;;;;;;5128336;27;20059;-64
2021/12/17 03:28:27;;;;;;;28.45;13.88;;;9.10;99.90;;;;;;5135396;27;20073;-64
2021/12/17 03:30:53;;;;;;;25.10;14.48;;;9.10;99.90;;;;;;5106671;27;20051;-64
2021/12/17 03:33:20;;;;;;;23.73;12.93;;;9.10;99.90;;;;;;5113430;27;20600;-64
2021/12/17 03:35:49;;;;;;;27.50;12.55;;;9.10;99.90;;;;;;5091202;28;20048;-64
2021/12/17 03:38:15;;;;;;;35.20;14.50;;;9.10;99.90;;;;;;5110337;28;20201;-64
2021/12/17 03:40:43;;;;;;;23.40;11.93;;;9.10;99.90;;;;;;5111010;27;20471;-64
2021/12/17 03:43:13;;;;;;;21.80;11.55;;;9.10;99.90;;;;;;5113508;27;20100;-64
2021/12/17 03:45:42;;;;;;;28.95;12.77;;;9.10;99.90;;;;;;5110119;27;20051;-64
2021/12/17 03:48:08;;;;;;;23.77;13.02;;;9.10;99.90;;;;;;5120322;27;20492;-64
2021/12/17 03:50:36;;;;;;;27.60;12.50;;;9.00;99.90;;;;;;5109474;28;20050;-64
2021/12/17 03:53:04;;;;;;;30.02;11.90;;;9.10;99.90;;;;;;5109792;28;20451;-64
2021/12/17 03:55:30;;;;;;;26.83;13.43;;;9.10;99.90;;;;;;5119824;27;20059;-64
2021/12/17 03:58:00;;;;;;;24.90;10.70;;;9.00;99.90;;;;;;5119512;27;20040;-64
2021/12/17 04:00:27;;;;;;;21.73;10.18;;;9.10;99.90;;;;;;5116494;27;20043;-64
2021/12/17 04:02:53;;;;;;;22.45;11.13;;;9.00;99.90;;;;;;5119225;27;20047;-64
2021/12/17 04:05:19;;;;;;;32.40;12.43;;;9.00;99.90;;;;;;5109168;27;20050;-64
2021/12/17 04:07:44;;;;;;;24.50;11.20;;;9.00;99.90;;;;;;5109820;28;20055;-64
2021/12/17 04:10:12;;;;;;;30.83;11.85;;;9.00;99.90;;;;;;5110941;27;20047;-64
2021/12/17 04:12:51;;;;;;;23.10;11.52;;;9.00;99.90;;;;;;5121079;27;20051;-64
2021/12/17 04:15:17;;;;;;;26.98;11.55;;;9.00;99.90;;;;;;5122085;27;20147;-64
2021/12/17 04:17:52;;;;;;;24.52;11.05;;;9.00;99.90;;;;;;5110758;27;20129;-64
2021/12/17 04:20:18;;;;;;;32.67;13.00;;;9.00;99.90;;;;;;5108295;28;20039;-64
2021/12/17 04:22:44;;;;;;;25.42;10.80;;;9.00;99.90;;;;;;5108583;28;20032;-64
2021/12/17 04:25:09;;;;;;;23.85;11.23;;;9.00;99.90;;;;;;5113056;28;20067;-64
2021/12/17 04:27:35;;;;;;;30.35;12.65;;;9.00;99.90;;;;;;5111196;28;20036;-65
2021/12/17 04:30:00;;;;;;;28.73;11.48;;;9.10;99.90;;;;;;5106827;28;20067;-65
2021/12/17 04:32:26;;;;;;;26.85;11.13;;;9.00;99.90;;;;;;5111237;28;20084;-64
2021/12/17 04:34:52;;;;;;;31.75;10.98;;;9.00;99.90;;;;;;5121723;27;20072;-64
2021/12/17 04:37:17;;;;;;;27.17;12.15;;;9.00;99.90;;;;;;5136185;27;20529;-64
2021/12/17 04:39:43;;;;;;;26.40;11.45;;;9.00;99.90;;;;;;5136466;27;20082;-65
2021/12/17 04:42:17;;;;;;;24.63;10.65;;;9.00;99.90;;;;;;5129332;28;20078;-64
2021/12/17 04:44:49;;;;;;;29.67;10.43;;;9.00;99.90;;;;;;5130082;28;20126;-64
2021/12/17 04:57:49;;;;;;;27.88;11.77;;;9.00;99.90;;;;;;5138588;27;20112;-64
2021/12/17 05:00:23;;;;;;;28.90;12.02;;;9.10;99.90;;;;;;5118235;27;20490;-64
2021/12/17 05:02:53;;;;;;;27.40;11.52;;;9.00;99.90;;;;;;5137515;27;20134;-65
2021/12/17 05:05:20;;;;;;;29.88;12.60;;;9.00;99.90;;;;;;5129876;27;20089;-64
2021/12/17 05:07:55;;;;;;;31.35;12.05;;;9.00;99.90;;;;;;5113810;27;20055;-64
2021/12/17 05:18:31;;;;;;;25.85;11.50;;;9.00;99.90;;;;;;5133309;27;20054;-64
2021/12/17 05:21:03;;;;;;;30.60;12.32;;;9.00;99.90;;;;;;5145283;27;20051;-64
2021/12/17 05:23:33;;;;;;;31.02;12.68;;;9.00;99.90;;;;;;5132904;27;20126;-64
2021/12/17 05:26:02;;;;;;;30.50;12.18;;;9.00;99.90;;;;;;5130729;27;20047;-64
2021/12/17 05:28:28;;;;;;;31.05;11.70;;;9.00;99.90;;;;;;5105703;27;20180;-64
2021/12/17 05:30:55;;;;;;;29.13;11.57;;;9.10;99.90;;;;;;5132704;27;20134;-64
2021/12/17 05:33:22;;;;;;;30.55;12.82;;;9.10;99.90;;;;;;5132655;27;20055;-67
2021/12/17 05:35:49;;;;;;;30.45;12.90;;;9.10;99.90;;;;;;5113063;27;20168;-64
2021/12/17 05:38:19;;;;;;;32.28;13.48;;;9.00;99.90;;;;;;5113615;27;20104;-64
2021/12/17 05:40:45;;;;;;;32.63;12.18;;;9.00;99.90;;;;;;5136416;27;20054;-64
2021/12/17 05:43:12;;;;;;;29.73;13.75;;;9.00;99.90;;;;;;5112365;27;20486;-64
2021/12/17 05:48:09;;;;;;;31.33;11.85;;;9.00;99.90;;;;;;5123378;27;20059;-64
2021/12/17 05:50:38;;;;;;;34.25;14.38;;;9.00;99.90;;;;;;5112644;27;20044;-64
2021/12/17 05:53:04;;;;;;;33.90;15.05;;;9.00;99.90;;;;;;5127728;27;20039;-64
2021/12/17 05:55:30;;;;;;;37.90;13.98;;;9.00;99.90;;;;;;5113922;27;20055;-64
2021/12/17 05:57:56;;;;;;;31.23;13.55;;;9.00;99.90;;;;;;5142077;27;20091;-64
2021/12/17 06:00:23;;;;;;;32.65;13.75;;;9.00;99.90;;;;;;5135433;27;20039;-64
2021/12/17 06:02:49;;;;;;;36.08;14.88;;;9.00;99.90;;;;;;5113786;27;20050;-64
2021/12/17 06:05:14;;;;;;;33.97;14.25;;;9.00;99.90;;;;;;5113304;27;20446;-64
2021/12/17 06:07:40;;;;;;;29.92;14.10;;;9.00;99.90;;;;;;5145333;27;20035;-64
2021/12/17 06:10:08;;;;;;;39.10;15.32;;;9.00;99.90;;;;;;5127829;27;20114;-64
2021/12/17 06:12:34;;;;;;;34.03;13.95;;;9.00;99.90;;;;;;5093192;28;20056;-64
2021/12/17 06:15:02;;;;;;;30.88;13.88;;;9.10;99.90;;;;;;5147528;27;20650;-64
2021/12/17 06:17:28;;;;;;;37.50;15.48;;;9.10;99.90;;;;;;5141305;27;20076;-64
2021/12/17 06:19:53;;;;;;;37.83;15.48;;;9.00;99.90;;;;;;5112444;27;20043;-64
2021/12/17 06:22:19;;;;;;;37.30;16.02;;;9.00;99.90;;;;;;5129510;27;20046;-64
2021/12/17 06:24:45;;;;;;;34.00;15.20;;;9.00;99.90;;;;;;5146212;27;20057;-64
2021/12/17 06:27:16;;;;;;;49.88;17.77;;;9.00;99.90;;;;;;5132109;27;20122;-64
2021/12/17 06:29:41;;;;;;;34.95;15.25;;;9.00;99.90;;;;;;5113478;27;20501;-64
2021/12/17 06:32:08;;;;;;;35.15;15.88;;;9.00;99.90;;;;;;5142854;27;20086;-65
2021/12/17 06:34:35;;;;;;;42.10;16.17;;;9.00;99.90;;;;;;5133867;27;20048;-64
2021/12/17 06:37:02;;;;;;;33.60;13.38;;;9.00;99.90;;;;;;5127253;27;20487;-64
2021/12/17 06:39:27;;;;;;;32.40;14.35;;;9.00;99.90;;;;;;5138883;27;20505;-64
2021/12/17 06:41:53;;;;;;;35.05;15.30;;;9.00;99.90;;;;;;5103971;27;20047;-64
2021/12/17 06:44:23;;;;;;;34.50;15.30;;;9.00;99.90;;;;;;5142029;27;20039;-64
2021/12/17 06:54:38;;;;;;;34.50;14.13;;;9.00;99.90;;;;;;5116451;27;20402;-64
2021/12/17 07:10:55;;;;;;;33.83;13.10;;;9.00;99.90;;;;;;5127030;27;20055;-64
2021/12/17 07:21:42;;;;;;;22.42;11.23;;;9.00;99.90;;;;;;5121308;27;20115;-64
2021/12/17 07:24:47;;;;;;;22.52;11.75;;;9.00;99.90;;;;;;5136374;27;20501;-64
2021/12/17 07:40:04;;;;;;;32.38;13.88;;;9.10;99.90;;;;;;5124469;27;20055;-64
2021/12/17 07:42:30;;;;;;;33.63;13.43;;;9.10;99.90;;;;;;5130276;27;20043;-64
2021/12/17 07:44:55;;;;;;;32.72;13.38;;;9.20;99.90;;;;;;5130474;27;20051;-65
2021/12/17 07:47:21;;;;;;;28.92;12.65;;;9.10;99.90;;;;;;5128126;27;20047;-64
2021/12/17 07:49:47;;;;;;;36.38;12.98;;;9.10;99.90;;;;;;5132968;27;20107;-64
2021/12/17 07:52:12;;;;;;;30.75;13.98;;;9.20;99.90;;;;;;5130760;27;20129;-65
2021/12/17 07:54:38;;;;;;;37.10;13.05;;;9.20;99.90;;;;;;5127292;27;20051;-64
2021/12/17 07:57:04;;;;;;;31.23;13.00;;;9.10;99.90;;;;;;5143819;27;20050;-64
2021/12/17 07:59:29;;;;;;;31.85;12.57;;;9.20;99.90;;;;;;5106972;27;20047;-64
2021/12/17 08:01:55;;;;;;;31.77;13.18;;;9.10;99.90;;;;;;5136200;27;20050;-65
2021/12/17 08:04:22;;;;;;;23.63;11.60;;;9.20;99.90;;;;;;5118310;27;20046;-64
2021/12/17 08:06:47;;;;;;;27.50;11.85;;;9.10;99.90;;;;;;5134547;27;20047;-64
2021/12/17 08:09:13;;;;;;;27.92;12.93;;;9.10;99.90;;;;;;5130734;27;20577;-64
2021/12/17 08:11:39;;;;;;;25.17;12.07;;;9.20;99.90;;;;;;5130119;27;20043;-64
2021/12/17 08:14:11;;;;;;;27.50;11.60;;;9.20;99.90;;;;;;5118162;27;20065;-64
2021/12/17 08:16:51;;;;;;;24.45;11.45;;;9.20;99.90;;;;;;5135614;27;20051;-64
2021/12/17 08:24:56;;;;;;;30.65;13.25;;;9.20;99.90;;;;;;5142093;27;20049;-64
2021/12/17 08:27:27;;;;;;;33.80;13.15;;;9.20;99.90;;;;;;5132297;27;20095;-64
2021/12/17 08:30:19;;;;;;;30.05;12.80;;;9.20;99.90;;;;;;5126716;27;20046;-64
2021/12/17 08:32:44;;;;;;;24.77;11.45;;;9.20;99.90;;;;;;5132724;27;20050;-64
2021/12/17 08:35:11;;;;;;;21.23;10.73;;;9.30;99.90;;;;;;5117105;28;20046;-65
2021/12/17 08:37:37;;;;;;;30.13;12.02;;;9.30;99.90;;;;;;5129162;28;20446;-65
2021/12/17 08:40:04;;;;;;;30.58;12.88;;;9.30;99.90;;;;;;5131316;27;20047;-64
2021/12/17 08:42:30;;;;;;;30.60;12.65;;;9.30;99.90;;;;;;5121940;27;20390;-64
2021/12/17 08:44:56;;;;;;;30.23;12.73;;;9.30;99.90;;;;;;5114771;27;20037;-65
2021/12/17 08:47:21;;;;;;;24.00;11.15;;;9.30;99.90;;;;;;5121955;27;20387;-65
2021/12/17 08:49:49;;;;;;;33.50;12.18;;;9.30;99.90;;;;;;5141039;27;20398;-65
2021/12/17 08:52:14;;;;;;;28.38;12.05;;;9.30;99.90;;;;;;5133661;27;20095;-64
2021/12/17 08:54:40;;;;;;;30.13;12.48;;;9.30;99.90;;;;;;5131041;27;20390;-65
2021/12/17 08:57:06;;;;;;;24.23;12.35;;;9.30;99.90;;;;;;5139855;27;20055;-65
2021/12/17 08:59:32;;;;;;;23.52;11.38;;;9.30;99.90;;;;;;5132921;27;20065;-65
2021/12/17 09:01:58;;;;;;;23.90;11.27;;;9.40;99.90;;;;;;5125233;27;20067;-64
2021/12/17 09:04:27;;;;;;;26.48;12.25;;;9.40;99.90;;;;;;5130963;27;20050;-65
2021/12/17 09:06:54;;;;;;;21.70;10.88;;;9.40;99.90;;;;;;5120538;27;20413;-65
2021/12/17 09:09:21;;;;;;;28.77;12.25;;;9.40;99.90;;;;;;5132846;27;20047;-65
2021/12/17 09:11:46;;;;;;;25.42;11.57;;;9.40;99.90;;;;;;5112930;27;20051;-64
2021/12/17 09:14:12;;;;;;;24.17;11.27;;;9.40;99.90;;;;;;5131798;27;20095;-65
2021/12/17 09:16:38;;;;;;;26.73;12.05;;;9.40;99.90;;;;;;5133854;27;20039;-65
2021/12/17 09:19:05;;;;;;;21.33;10.00;;;9.50;99.90;;;;;;5129955;27;20039;-64
2021/12/17 09:21:31;;;;;;;19.80;10.10;;;9.50;99.90;;;;;;5121793;27;20065;-64
2021/12/17 09:23:57;;;;;;;27.50;11.60;;;9.50;99.90;;;;;;5144539;27;20048;-64
2021/12/17 09:26:23;;;;;;;20.50;10.68;;;9.50;99.90;;;;;;5135726;27;20053;-65
2021/12/17 09:28:49;;;;;;;21.35;10.55;;;9.50;99.90;;;;;;5115890;27;20103;-64
2021/12/17 09:31:16;;;;;;;24.08;10.50;;;9.50;99.90;;;;;;5131172;27;20052;-65
2021/12/17 09:33:45;;;;;;;25.70;11.15;;;9.50;99.90;;;;;;5131159;27;20066;-64
2021/12/17 09:36:12;;;;;;;20.35;9.82;;;9.60;99.90;;;;;;5139577;27;20055;-64
2021/12/17 09:38:38;;;;;;;18.13;9.00;;;9.60;99.90;;;;;;5151062;27;20027;-65
2021/12/17 09:41:04;;;;;;;23.83;9.57;;;9.60;99.90;;;;;;5119726;27;20058;-64
2021/12/17 09:43:32;;;;;;;14.18;8.40;;;9.60;99.90;;;;;;5140381;27;20122;-65
2021/12/17 09:45:58;;;;;;;17.52;8.30;;;9.60;99.90;;;;;;5135604;27;20074;-64
2021/12/17 09:48:24;;;;;;;15.00;7.57;;;9.70;99.90;;;;;;5132525;27;20075;-64
2021/12/17 09:50:52;;;;;;;10.75;6.88;;;9.70;99.90;;;;;;5139160;27;20082;-65
2021/12/17 09:53:17;;;;;;;9.13;5.88;;;9.70;99.90;;;;;;5132269;27;20171;-64
2021/12/17 09:55:43;;;;;;;11.57;5.68;;;9.70;99.90;;;;;;5134976;27;20122;-64
2021/12/17 09:58:09;;;;;;;9.23;5.78;;;9.80;99.90;;;;;;5130447;27;20042;-64
2021/12/17 10:00:34;;;;;;;9.88;5.85;;;9.80;99.90;;;;;;5132313;27;20050;-64
2021/12/17 10:03:00;;;;;;;9.38;5.97;;;9.80;99.90;;;;;;5130911;27;20046;-64
2021/12/17 10:05:32;;;;;;;7.13;4.72;;;9.80;99.90;;;;;;5128204;27;20039;-64
2021/12/17 10:08:09;;;;;;;11.50;5.85;;;9.90;99.90;;;;;;5131538;27;20051;-64
2021/12/17 10:10:44;;;;;;;13.18;5.45;;;9.90;99.90;;;;;;5122964;27;20410;-64
2021/12/17 10:13:11;;;;;;;9.75;4.97;;;9.90;99.90;;;;;;5127766;27;20053;-64
2021/12/17 10:15:42;;;;;;;10.02;5.43;;;9.90;99.90;;;;;;5125193;27;20040;-64
2021/12/17 10:18:08;;;;;;;10.38;5.95;;;9.90;99.90;;;;;;5151710;27;20038;-64
2021/12/17 10:20:52;;;;;;;8.48;4.43;;;9.90;99.90;;;;;;5119915;27;20380;-64
2021/12/17 10:23:21;;;;;;;9.27;4.85;;;10.00;99.90;;;;;;5131787;27;20125;-64
2021/12/17 10:25:48;;;;;;;8.05;5.85;;;10.00;99.90;;;;;;5131147;27;20509;-64
2021/12/17 10:28:14;;;;;;;7.60;5.57;;;10.00;99.90;;;;;;5135251;27;20192;-64
2021/12/17 10:30:44;;;;;;;10.98;5.70;;;10.00;99.90;;;;;;5152740;27;20077;-65
2021/12/17 10:33:13;;;;;;;7.40;5.60;;;10.00;99.90;;;;;;5152340;27;20046;-65
2021/12/17 10:35:43;;;;;;;5.72;4.65;;;10.00;99.90;;;;;;5151080;27;20414;-65
2021/12/17 10:38:12;;;;;;;9.23;5.07;;;10.00;99.90;;;;;;5151686;27;20123;-65
2021/12/17 10:40:44;;;;;;;9.25;4.90;;;10.00;99.90;;;;;;5116914;27;20048;-65
2021/12/17 10:43:25;;;;;;;6.33;4.67;;;10.00;99.90;;;;;;5152786;27;20047;-65
2021/12/17 10:46:00;;;;;;;5.40;3.38;;;10.00;99.90;;;;;;5140090;27;20051;-65
2021/12/17 10:53:54;;;;;;;5.82;4.18;;;10.10;99.90;;;;;;5138451;27;20047;-65
2021/12/17 10:56:26;;;;;;;8.73;5.30;;;10.10;99.90;;;;;;5146603;27;20088;-65
2021/12/17 10:59:26;;;;;;;9.43;6.57;;;10.10;99.90;;;;;;5131579;27;20051;-65
2021/12/17 11:01:54;;;;;;;9.90;8.10;;;10.10;99.90;;;;;;5069049;27;20146;-65
2021/12/17 11:04:29;;;;;;;11.75;8.23;;;10.10;99.90;;;;;;5149127;27;20031;-65
2021/12/17 11:07:17;;;;;;;5.30;4.63;;;10.10;99.90;;;;;;5117134;27;20051;-65
2021/12/17 11:09:54;;;;;;;5.60;5.00;;;10.10;99.90;;;;;;5131183;27;20457;-64
2021/12/17 11:12:23;;;;;;;7.07;4.70;;;10.10;99.90;;;;;;5133324;27;20054;-64
2021/12/17 11:14:49;;;;;;;6.70;4.28;;;10.10;99.90;;;;;;5132801;27;20477;-65
2021/12/17 11:17:21;;;;;;;9.15;4.85;;;10.10;99.90;;;;;;5152078;27;20189;-65
2021/12/17 11:19:47;;;;;;;6.22;4.22;;;10.10;99.90;;;;;;5131022;27;20047;-65
2021/12/17 11:22:12;;;;;;;4.72;4.22;;;10.10;99.90;;;;;;5150957;27;20547;-64
2021/12/17 11:24:38;;;;;;;5.45;4.95;;;10.10;99.90;;;;;;5150795;27;20058;-65
2021/12/17 11:27:06;;;;;;;5.13;3.72;;;10.20;99.90;;;;;;5146754;27;20047;-65
2021/12/17 11:29:32;;;;;;;7.60;4.15;;;10.10;99.90;;;;;;5150586;27;20443;-65
2021/12/17 11:32:03;;;;;;;4.32;3.92;;;10.20;99.90;;;;;;5142442;27;20091;-65
2021/12/17 11:34:30;;;;;;;7.35;4.28;;;10.20;99.90;;;;;;5150671;27;20046;-65
2021/12/17 11:36:58;;;;;;;4.68;3.67;;;10.20;99.90;;;;;;5151896;27;20071;-65
2021/12/17 11:39:28;;;;;;;4.50;3.75;;;10.20;99.90;;;;;;5144427;27;20043;-65
2021/12/17 11:42:31;;;;;;;5.72;4.20;;;10.20;99.90;;;;;;5131283;27;20572;-65
2021/12/17 11:47:44;;;;;;;6.78;4.28;;;10.20;99.90;;;;;;5151438;27;20103;-65
2021/12/17 11:50:12;;;;;;;5.28;4.53;;;10.20;99.90;;;;;;5133206;27;20039;-65
2021/12/17 11:52:40;;;;;;;6.05;4.30;;;10.20;99.90;;;;;;5130815;27;20071;-65
2021/12/17 11:55:44;;;;;;;6.30;4.55;;;10.20;99.90;;;;;;5145634;27;20633;-65
2021/12/17 11:58:14;;;;;;;5.97;4.47;;;10.20;99.90;;;;;;5046989;28;20041;-65
2021/12/17 12:00:45;;;;;;;4.68;4.22;;;10.20;99.90;;;;;;5134034;27;20104;-65
2021/12/17 12:03:16;;;;;;;17.23;11.70;;;10.20;99.90;;;;;;5143601;27;20047;-65
2021/12/17 12:05:44;;;;;;;16.05;8.55;;;10.20;99.90;;;;;;5130159;27;20043;-65
2021/12/17 12:08:33;;;;;;;9.95;6.45;;;10.30;99.90;;;;;;5128614;27;20753;-65
2021/12/17 12:11:03;;;;;;;7.47;5.45;;;10.30;99.90;;;;;;5128274;27;20058;-65
2021/12/17 12:13:46;;;;;;;5.68;4.78;;;10.30;99.90;;;;;;5128661;27;20089;-65
2021/12/17 12:16:17;;;;;;;8.45;5.18;;;10.30;99.90;;;;;;5129786;27;20035;-65
2021/12/17 12:18:44;;;;;;;7.47;4.78;;;10.30;99.90;;;;;;5130180;27;20062;-65
2021/12/17 12:21:11;;;;;;;4.78;4.30;;;10.30;99.90;;;;;;5111453;28;20055;-64
2021/12/17 12:24:04;;;;;;;7.80;6.53;;;10.30;99.90;;;;;;5147093;27;20050;-64
2021/12/17 12:26:37;;;;;;;7.95;5.82;;;10.40;99.90;;;;;;5136957;27;20050;-65
2021/12/17 12:29:07;;;;;;;5.78;5.15;;;10.30;99.90;;;;;;5132129;27;20046;-65
2021/12/17 12:31:37;;;;;;;5.97;4.80;;;10.30;99.90;;;;;;5148797;27;20050;-65
2021/12/17 12:34:06;;;;;;;5.15;4.57;;;10.40;99.90;;;;;;5135020;27;20122;-64
2021/12/17 12:37:03;;;;;;;6.20;4.28;;;10.40;99.90;;;;;;5126594;27;20047;-65
2021/12/17 12:39:37;;;;;;;6.95;3.40;;;10.30;99.90;;;;;;5126352;27;20836;-65
2021/12/17 12:42:17;;;;;;;5.80;3.30;;;10.40;99.90;;;;;;5110973;28;20088;-65
2021/12/17 12:44:42;;;;;;;4.55;3.63;;;10.40;99.90;;;;;;5109851;28;20247;-65
2021/12/17 12:47:34;;;;;;;5.85;4.25;;;10.40;99.90;;;;;;5129531;27;20554;-65
2021/12/17 12:50:03;;;;;;;5.88;4.43;;;10.40;99.90;;;;;;5137767;27;20075;-65
2021/12/17 12:52:32;;;;;;;5.32;4.20;;;10.40;99.90;;;;;;5150023;27;20062;-64
2021/12/17 12:55:05;;;;;;;7.32;4.38;;;10.40;99.90;;;;;;5133599;27;20054;-65
2021/12/17 12:57:39;;;;;;;4.28;3.85;;;10.40;99.90;;;;;;5150608;27;20049;-65
2021/12/17 13:00:08;;;;;;;4.47;3.42;;;10.40;99.90;;;;;;5132855;27;20039;-65
2021/12/17 13:02:34;;;;;;;5.20;4.35;;;10.40;99.90;;;;;;5150776;27;20125;-65
2021/12/17 13:05:00;;;;;;;6.43;4.35;;;10.40;99.90;;;;;;5141402;27;20443;-65
2021/12/17 13:07:36;;;;;;;6.03;5.03;;;10.40;99.90;;;;;;5129105;27;20051;-65
2021/12/17 13:10:08;;;;;;;6.78;3.92;;;10.40;99.90;;;;;;5134889;27;20061;-65
2021/12/17 13:12:37;;;;;;;4.25;3.75;;;10.40;99.90;;;;;;5149460;27;20437;-65
2021/12/17 13:15:20;;;;;;;4.68;3.90;;;10.40;99.90;;;;;;5150342;27;20064;-65
2021/12/17 13:23:22;;;;;;;4.13;3.28;;;10.40;99.90;;;;;;5147630;27;20051;-65
2021/12/17 13:26:10;;;;;;;5.47;3.63;;;10.40;99.90;;;;;;5142362;27;20050;-64
2021/12/17 13:29:13;;;;;;;3.75;2.80;;;10.40;99.90;;;;;;5133042;27;20137;-65
2021/12/17 13:31:44;;;;;;;5.53;3.50;;;10.40;99.90;;;;;;5032279;28;20095;-65
2021/12/17 13:34:29;;;;;;;5.20;3.22;;;10.40;99.90;;;;;;5131928;27;20054;-65
2021/12/17 13:37:03;;;;;;;4.70;3.17;;;10.40;99.90;;;;;;5132622;27;20051;-65
2021/12/17 13:39:41;;;;;;;3.47;2.72;;;10.40;99.90;;;;;;5126080;27;20044;-65
2021/12/17 13:42:08;;;;;;;5.00;2.67;;;10.50;99.90;;;;;;5105320;27;20062;-65
2021/12/17 13:44:38;;;;;;;3.58;3.28;;;10.40;99.90;;;;;;5133010;27;20047;-64
2021/12/17 13:47:29;;;;;;;4.20;3.22;;;10.40;99.90;;;;;;5132509;27;20042;-65
2021/12/17 13:50:05;;;;;;;3.72;2.88;;;10.40;99.90;;;;;;5116491;27;20049;-65
2021/12/17 13:52:33;;;;;;;2.85;2.22;;;10.40;99.90;;;;;;5129973;27;20031;-65
2021/12/17 13:55:01;;;;;;;5.50;2.35;;;10.40;99.90;;;;;;5132098;27;20486;-65
2021/12/17 13:57:31;;;;;;;3.92;2.38;;;10.40;99.90;;;;;;5144559;27;20118;-65
2021/12/17 14:00:10;;;;;;;3.33;2.35;;;10.30;99.90;;;;;;5149731;27;20118;-64
2021/12/17 14:02:37;;;;;;;3.33;2.50;;;10.40;99.90;;;;;;5131334;27;20488;-64
2021/12/17 14:05:09;;;;;;;3.13;2.83;;;10.30;99.90;;;;;;5127814;27;20048;-65
2021/12/17 14:07:36;;;;;;;4.80;2.55;;;10.30;99.90;;;;;;5128574;27;20042;-65
2021/12/17 14:10:27;;;;;;;5.45;3.13;;;10.30;99.90;;;;;;5146730;27;20046;-64
2021/12/17 14:12:52;;;;;;;2.80;2.60;;;10.30;99.90;;;;;;5145706;27;20064;-65
2021/12/17 14:15:21;;;;;;;3.95;2.92;;;10.30;99.90;;;;;;5132935;27;20055;-64
2021/12/17 14:17:52;;;;;;;5.00;3.13;;;10.30;99.90;;;;;;5131616;27;20134;-65
2021/12/17 14:20:24;;;;;;;4.28;3.50;;;10.30;99.90;;;;;;5151390;27;20058;-64
2021/12/17 14:22:52;;;;;;;5.53;4.40;;;10.30;99.90;;;;;;5130810;27;20078;-65
2021/12/17 14:25:29;;;;;;;8.35;5.40;;;10.30;99.90;;;;;;5153099;27;20043;-64
2021/12/17 14:28:01;;;;;;;9.45;3.65;;;10.30;99.90;;;;;;5136854;27;20159;-65
2021/12/17 14:30:34;;;;;;;4.95;2.88;;;10.30;99.90;;;;;;5131269;27;20058;-65
2021/12/17 14:33:10;;;;;;;7.15;5.65;;;10.30;99.90;;;;;;5131892;27;20043;-66
2021/12/17 14:35:39;;;;;;;10.02;6.78;;;10.30;99.90;;;;;;5138331;27;20478;-65
2021/12/17 14:38:04;;;;;;;6.05;5.45;;;10.30;99.90;;;;;;5132682;27;20050;-65
2021/12/17 14:43:23;;;;;;;8.57;5.50;;;10.30;99.90;;;;;;5150910;27;20415;-65
2021/12/17 14:46:00;;;;;;;8.43;3.92;;;10.40;99.90;;;;;;5152181;27;20095;-65
2021/12/17 15:04:49;;;;;;;12.30;4.55;;;10.40;99.90;;;;;;5150275;27;20481;-65
2021/12/17 15:07:18;;;;;;;5.15;4.35;;;10.30;99.90;;;;;;5133202;27;20047;-65
2021/12/17 15:09:45;;;;;;;5.60;4.68;;;10.30;99.90;;;;;;5113426;27;20422;-65
2021/12/17 15:12:25;;;;;;;5.18;4.63;;;10.20;99.90;;;;;;5131191;27;20077;-64
2021/12/17 15:14:51;;;;;;;5.28;4.40;;;10.30;99.90;;;;;;5124437;27;20038;-64
2021/12/17 15:17:17;;;;;;;6.40;4.43;;;10.30;99.90;;;;;;5147574;27;20042;-65
2021/12/17 15:19:43;;;;;;;4.18;3.35;;;10.30;99.90;;;;;;5150556;27;20043;-64
2021/12/17 15:22:09;;;;;;;4.45;3.70;;;10.30;99.90;;;;;;5139632;27;20130;-65
2021/12/17 15:24:34;;;;;;;4.97;4.43;;;10.30;99.90;;;;;;5121619;27;20075;-65
2021/12/17 15:27:00;;;;;;;5.82;5.20;;;10.30;99.90;;;;;;5149952;27;20069;-65
2021/12/17 15:29:25;;;;;;;5.57;4.55;;;10.30;99.90;;;;;;5140283;27;20042;-64
2021/12/17 15:31:52;;;;;;;6.20;4.88;;;10.30;99.90;;;;;;5132610;27;20494;-65
2021/12/17 15:34:18;;;;;;;6.13;5.53;;;10.30;99.90;;;;;;5133680;27;20077;-65
2021/12/17 15:36:43;;;;;;;6.93;5.32;;;10.30;99.90;;;;;;5151290;27;20096;-65
2021/12/17 15:39:09;;;;;;;5.90;4.90;;;10.30;99.90;;;;;;5151120;27;20498;-65
2021/12/17 15:41:39;;;;;;;5.90;4.93;;;10.30;99.90;;;;;;5145221;27;20059;-65
2021/12/17 15:44:06;;;;;;;6.15;5.28;;;10.40;99.90;;;;;;5151142;27;20051;-65
2021/12/17 15:46:32;;;;;;;8.82;5.07;;;10.30;99.90;;;;;;5151395;27;20047;-64
2021/12/17 15:48:57;;;;;;;5.97;4.50;;;10.30;99.90;;;;;;5134634;27;20059;-65
2021/12/17 15:51:23;;;;;;;6.00;5.40;;;10.30;99.90;;;;;;5130019;27;20054;-64
2021/12/17 15:53:48;;;;;;;8.50;5.05;;;10.30;99.90;;;;;;5139564;27;20043;-65
2021/12/17 15:56:14;;;;;;;6.32;5.43;;;10.30;99.90;;;;;;5150673;27;20031;-64
2021/12/17 15:58:39;;;;;;;9.00;5.65;;;10.30;99.90;;;;;;5150360;27;20074;-65
2021/12/17 16:01:05;;;;;;;7.13;5.88;;;10.30;99.90;;;;;;5151010;27;20043;-64
2021/12/17 16:03:33;;;;;;;6.50;5.57;;;10.30;99.90;;;;;;5131860;27;20047;-65